Woodbury, Illinois
Current Conditions -  °F | °C
As of 5:55 PM on Friday 24 Oct 2014 (Local Time) from K1H2 Reporting Station
Clear Clear  
Wind Chill: 61°   Ceiling: Unl
Heat Index: 61°   Visibility: 10mi
Dew Point: 50°   Wind: 3mph
Humidity: 67%   Direction: 210°SSW
Pressure: 30.03"   Gusts: NA
Location:  39.1496°N, 88.3177°W
Report Text: K1H2 242255Z AUTO 21003KT 10SM CLR 16/10 A3003 RMK AO2 T01630101
Loading
Personal Weather Stations






























Interactive Weather Map
Tropical Storm Tracking
New forecast layout! Learn more

10-Day Weather Forecast

Advertisements
Track Severe Weather on mobile